createdAt,value
2023-01-29T00:02:24.693Z,101822.02
2023-01-29T00:05:26.879Z,101820.46
2023-01-29T00:08:19.077Z,101812.31
2023-01-29T00:11:11.220Z,101808.83
2023-01-29T00:14:01.592Z,101808.23
2023-01-29T00:16:52.255Z,101810.61
2023-01-29T00:19:42.283Z,101808.06
2023-01-29T00:22:34.614Z,101799.43
2023-01-29T00:25:25.547Z,101798.07
2023-01-29T00:28:16.446Z,101792.67
2023-01-29T00:31:12.867Z,101790.81
2023-01-29T00:34:03.814Z,101787.21
2023-01-29T00:37:05.220Z,101787.23
2023-01-29T00:39:55.859Z,101784.12
2023-01-29T00:43:05.461Z,101783.95
2023-01-29T00:45:56.622Z,101779.61
2023-01-29T00:48:47.611Z,101776.16
2023-01-29T00:51:39.344Z,101776.85
2023-01-29T00:54:31.891Z,101780.95
2023-01-29T00:57:23.546Z,101782.77
2023-01-29T01:00:17.909Z,101781.05
2023-01-29T01:03:08.381Z,101787.04
2023-01-29T01:06:09.395Z,101790.04
2023-01-29T01:09:17.242Z,101788.13
2023-01-29T01:12:08.443Z,101792.83
2023-01-29T01:14:59.502Z,101795.63
2023-01-29T01:17:53.027Z,101794.48
2023-01-29T01:20:43.749Z,101792.66
2023-01-29T01:23:34.662Z,101798.27
2023-01-29T01:26:25.262Z,101796.25
2023-01-29T01:29:15.422Z,101796.64
2023-01-29T01:32:06.168Z,101796.23
2023-01-29T01:34:56.487Z,101797.99
2023-01-29T01:37:46.579Z,101800.99
2023-01-29T01:40:36.925Z,101800.86
2023-01-29T01:43:27.763Z,101796.20
2023-01-29T01:46:18.098Z,101793.73
2023-01-29T01:49:13.099Z,101796.39
2023-01-29T01:52:03.869Z,101797.90
2023-01-29T01:54:55.206Z,101795.05
2023-01-29T01:57:49.565Z,101789.25
2023-01-29T02:00:40.534Z,101792.30
2023-01-29T02:03:50.042Z,101793.56
2023-01-29T02:07:00.743Z,101794.02
2023-01-29T02:09:54.453Z,101799.33
2023-01-29T02:12:47.201Z,101802.23
2023-01-29T02:15:42.164Z,101798.95
2023-01-29T02:18:38.191Z,101796.48
2023-01-29T02:21:54.093Z,101790.70
2023-01-29T02:25:17.112Z,101787.32
2023-01-29T02:28:24.251Z,101784.33
2023-01-29T02:31:25.702Z,101782.35
2023-01-29T02:34:26.749Z,101791.04
2023-01-29T02:37:18.371Z,101792.70
2023-01-29T02:40:15.992Z,101791.70
2023-01-29T02:43:16.856Z,101790.21
2023-01-29T02:46:17.493Z,101794.87
2023-01-29T02:49:19.404Z,101798.40
2023-01-29T02:52:16.761Z,101794.61
2023-01-29T02:55:14.485Z,101796.95
2023-01-29T02:58:12.024Z,101793.80
2023-01-29T03:01:06.274Z,101790.48
2023-01-29T03:04:00.546Z,101788.70
2023-01-29T03:06:56.221Z,101791.61
2023-01-29T03:09:53.128Z,101798.30
2023-01-29T03:12:48.161Z,101807.70
2023-01-29T03:15:47.669Z,101811.86
2023-01-29T03:18:56.406Z,101813.02
2023-01-29T03:21:55.480Z,101811.32
2023-01-29T03:25:06.471Z,101812.94
2023-01-29T03:28:18.843Z,101814.44
2023-01-29T03:31:32.251Z,101814.16
2023-01-29T03:34:39.093Z,101819.05
2023-01-29T03:37:36.089Z,101817.31
2023-01-29T03:40:30.244Z,101815.12
2023-01-29T03:43:32.339Z,101820.83
2023-01-29T03:46:29.843Z,101818.55
2023-01-29T03:49:25.446Z,101821.98
2023-01-29T03:52:21.979Z,101827.13
2023-01-29T03:55:19.084Z,101820.16
2023-01-29T03:58:22.189Z,101818.67
2023-01-29T04:01:20.603Z,101825.44
2023-01-29T04:04:16.727Z,101825.98
2023-01-29T04:07:12.446Z,101829.42
2023-01-29T04:10:07.653Z,101829.83
2023-01-29T04:13:04.182Z,101828.31
2023-01-29T04:15:58.434Z,101828.95
2023-01-29T04:19:08.821Z,101827.36
2023-01-29T04:22:08.624Z,101825.18
2023-01-29T04:25:02.972Z,101827.86
2023-01-29T04:28:06.516Z,101829.45
2023-01-29T04:31:04.841Z,101829.44
2023-01-29T04:34:07.325Z,101834.30
2023-01-29T04:37:10.560Z,101836.76
2023-01-29T04:40:10.009Z,101831.19
2023-01-29T04:43:08.204Z,101829.59
2023-01-29T04:46:11.933Z,101829.06
2023-01-29T04:49:19.877Z,101836.55
2023-01-29T04:52:17.375Z,101844.89
2023-01-29T04:55:15.433Z,101851.52
2023-01-29T04:58:13.406Z,101848.19
2023-01-29T05:01:06.971Z,101841.98
2023-01-29T05:03:57.720Z,101850.13
2023-01-29T05:06:49.093Z,101858.86
2023-01-29T05:09:40.530Z,101861.65
2023-01-29T05:12:32.524Z,101863.81
2023-01-29T05:15:28.320Z,101864.54
2023-01-29T05:18:19.367Z,101862.55
2023-01-29T05:21:11.007Z,101863.71
2023-01-29T05:24:13.875Z,101865.27
2023-01-29T05:27:22.086Z,101851.16
2023-01-29T05:30:15.334Z,101856.64
2023-01-29T05:33:06.589Z,101866.27
2023-01-29T05:35:57.981Z,101865.27
2023-01-29T05:38:48.209Z,101866.89
2023-01-29T05:41:38.570Z,101864.46
2023-01-29T05:44:29.427Z,101865.83
2023-01-29T05:47:23.692Z,101865.00
2023-01-29T05:50:15.898Z,101868.95
2023-01-29T05:53:07.039Z,101868.37
2023-01-29T05:55:57.872Z,101873.06
2023-01-29T05:58:48.561Z,101872.54
2023-01-29T06:01:39.003Z,101880.01
2023-01-29T06:04:29.806Z,101881.95
2023-01-29T06:07:20.513Z,101887.23
2023-01-29T06:10:13.049Z,101894.33
2023-01-29T06:13:03.900Z,101899.08
2023-01-29T06:15:54.870Z,101907.91
2023-01-29T06:18:45.474Z,101913.59
2023-01-29T06:21:35.536Z,101911.29
2023-01-29T06:24:26.519Z,101908.39
2023-01-29T06:27:17.082Z,101912.61
2023-01-29T06:30:09.160Z,101911.88
2023-01-29T06:33:01.771Z,101920.41
2023-01-29T06:35:56.357Z,101925.18
2023-01-29T06:38:47.485Z,101914.12
2023-01-29T06:41:37.856Z,101908.63
2023-01-29T06:44:27.831Z,101903.02
2023-01-29T06:47:18.739Z,101916.44
2023-01-29T06:50:10.164Z,101926.08
2023-01-29T06:53:01.832Z,101924.11
2023-01-29T06:55:55.747Z,101919.97
2023-01-29T06:58:46.945Z,101921.34
2023-01-29T07:01:41.158Z,101933.74
2023-01-29T07:04:31.710Z,101935.33
2023-01-29T07:07:21.825Z,101950.21
2023-01-29T07:10:13.558Z,101952.89
2023-01-29T07:13:04.210Z,101951.55
2023-01-29T07:15:55.224Z,101956.14
2023-01-29T07:18:45.773Z,101955.52
2023-01-29T07:21:35.931Z,101949.20
2023-01-29T07:24:26.768Z,101952.17
2023-01-29T07:27:17.139Z,101965.15
2023-01-29T07:30:11.824Z,101969.10
2023-01-29T07:33:08.224Z,101958.64
2023-01-29T07:35:59.006Z,101964.89
2023-01-29T07:38:52.039Z,101963.73
2023-01-29T07:41:42.147Z,101968.07
2023-01-29T07:44:39.187Z,101967.29
2023-01-29T07:47:29.504Z,101976.52
2023-01-29T07:50:20.539Z,101978.52
2023-01-29T07:53:16.068Z,101986.58
2023-01-29T07:56:06.802Z,101990.20
2023-01-29T07:58:57.300Z,101990.67
2023-01-29T08:01:47.548Z,101997.31
2023-01-29T08:04:38.045Z,101992.98
2023-01-29T08:07:27.953Z,101991.48
2023-01-29T08:10:19.412Z,102000.20
2023-01-29T08:13:10.232Z,102001.65
2023-01-29T08:16:04.489Z,102003.74
2023-01-29T08:18:54.825Z,102005.44
2023-01-29T08:21:44.976Z,102012.30
2023-01-29T08:24:47.654Z,102010.05
2023-01-29T08:27:44.480Z,102007.69
2023-01-29T08:30:36.926Z,102016.05
2023-01-29T08:33:38.689Z,102021.17
2023-01-29T08:36:29.483Z,102026.56
2023-01-29T08:39:21.262Z,102025.02
2023-01-29T08:42:11.982Z,102026.83
2023-01-29T08:45:02.553Z,102036.18
2023-01-29T08:47:52.934Z,102040.11
2023-01-29T08:50:43.107Z,102045.34
2023-01-29T08:53:33.531Z,102047.32
2023-01-29T08:56:24.092Z,102045.63
2023-01-29T08:59:15.222Z,102048.70
2023-01-29T09:02:05.356Z,102058.19
2023-01-29T09:04:55.163Z,102064.13
2023-01-29T09:07:45.359Z,102073.02
2023-01-29T09:10:35.233Z,102071.71
2023-01-29T09:13:25.756Z,102079.26
2023-01-29T09:16:15.780Z,102077.05
2023-01-29T09:19:05.990Z,102075.26
2023-01-29T09:21:56.421Z,102080.38
2023-01-29T09:24:46.508Z,102087.66
2023-01-29T09:27:36.939Z,102094.60
2023-01-29T09:30:27.283Z,102094.79
2023-01-29T09:33:18.402Z,102095.53
2023-01-29T09:36:10.477Z,102092.80
2023-01-29T09:39:02.073Z,102094.18
2023-01-29T09:41:58.523Z,102088.95
2023-01-29T09:44:58.695Z,102093.46
2023-01-29T09:47:50.508Z,102093.02
2023-01-29T09:50:45.616Z,102090.38
2023-01-29T09:53:42.170Z,102092.20
2023-01-29T09:56:33.897Z,102093.48
2023-01-29T09:59:28.236Z,102096.68
2023-01-29T10:02:40.167Z,102098.07
2023-01-29T10:05:51.970Z,102099.93
2023-01-29T10:09:16.280Z,102097.71
2023-01-29T10:12:20.446Z,102099.02
2023-01-29T10:15:22.764Z,102100.16
2023-01-29T10:18:34.871Z,102105.91
2023-01-29T10:21:38.989Z,102103.22
2023-01-29T10:24:39.408Z,102099.23
2023-01-29T10:27:38.515Z,102092.19
2023-01-29T10:30:36.031Z,102086.41
2023-01-29T10:33:49.646Z,102088.73
2023-01-29T10:36:46.182Z,102091.39
2023-01-29T10:39:36.284Z,102087.65
2023-01-29T10:42:35.445Z,102083.75
2023-01-29T10:45:33.118Z,102082.19
2023-01-29T10:48:41.934Z,102081.16
2023-01-29T10:51:48.545Z,102077.18
2023-01-29T10:54:55.490Z,102071.63
2023-01-29T10:58:02.873Z,102069.55
2023-01-29T11:00:53.726Z,102059.41
2023-01-29T11:03:44.275Z,102061.59
2023-01-29T11:06:36.359Z,102057.80
2023-01-29T11:09:34.577Z,102055.77
2023-01-29T11:12:30.815Z,102055.29
2023-01-29T11:15:25.911Z,102053.02
2023-01-29T11:18:17.941Z,102051.90
2023-01-29T11:21:08.267Z,102042.27
2023-01-29T11:24:18.808Z,102035.68
2023-01-29T11:27:23.176Z,102031.89
2023-01-29T11:30:21.355Z,102026.80
2023-01-29T11:33:14.131Z,102019.96
2023-01-29T11:36:29.374Z,102011.55
2023-01-29T11:39:23.133Z,102003.20
2023-01-29T11:42:23.223Z,101997.05
2023-01-29T11:45:30.109Z,101988.30
2023-01-29T11:48:22.434Z,101980.84
2023-01-29T11:51:22.094Z,101976.59
2023-01-29T11:54:21.026Z,101970.91
2023-01-29T11:57:27.755Z,101964.83
2023-01-29T12:00:25.269Z,101961.36
2023-01-29T12:03:25.024Z,101958.20
2023-01-29T12:06:22.582Z,101955.75
2023-01-29T12:09:18.023Z,101944.52
2023-01-29T12:12:29.036Z,101933.34
2023-01-29T12:15:25.650Z,101926.83
2023-01-29T12:18:24.917Z,101925.71
2023-01-29T12:21:21.905Z,101924.32
2023-01-29T12:24:26.531Z,101916.82
2023-01-29T12:27:24.054Z,101912.56
2023-01-29T12:30:21.455Z,101912.25
2023-01-29T12:33:25.139Z,101912.85
2023-01-29T12:36:22.707Z,101906.35
2023-01-29T12:39:17.919Z,101905.15
2023-01-29T12:42:13.344Z,101899.94
2023-01-29T12:45:08.313Z,101898.41
2023-01-29T12:48:02.647Z,101891.81
2023-01-29T12:50:54.466Z,101887.80
2023-01-29T12:53:49.323Z,101882.60
2023-01-29T12:56:43.736Z,101877.58
2023-01-29T12:59:39.116Z,101876.67
2023-01-29T13:02:36.871Z,101874.27
2023-01-29T13:05:31.451Z,101871.02
2023-01-29T13:08:25.210Z,101863.42
2023-01-29T13:11:22.425Z,101857.48
2023-01-29T13:14:20.781Z,101853.83
2023-01-29T13:17:15.739Z,101851.96
2023-01-29T13:20:15.116Z,101852.46
2023-01-29T13:23:27.250Z,101850.39
2023-01-29T13:26:21.118Z,101852.47
2023-01-29T13:29:24.941Z,101849.77
2023-01-29T13:32:21.411Z,101843.63
2023-01-29T13:35:17.684Z,101845.17
2023-01-29T13:38:23.498Z,101845.67
2023-01-29T13:41:15.047Z,101842.18
2023-01-29T13:44:07.735Z,101838.95
2023-01-29T13:47:02.898Z,101838.80
2023-01-29T13:50:01.406Z,101840.95
2023-01-29T13:52:57.963Z,101843.15
2023-01-29T13:55:48.787Z,101836.33
2023-01-29T13:58:58.485Z,101834.58
2023-01-29T14:02:23.717Z,101832.19
2023-01-29T14:05:42.180Z,101827.22
2023-01-29T14:08:45.390Z,101828.09
2023-01-29T14:11:39.259Z,101826.27
2023-01-29T14:14:53.239Z,101825.45
2023-01-29T14:17:55.241Z,101830.40
2023-01-29T14:20:55.439Z,101826.19
2023-01-29T14:23:48.975Z,101827.09
2023-01-29T14:26:46.082Z,101820.66
2023-01-29T14:29:42.956Z,101824.30
2023-01-29T14:32:33.902Z,101824.05
2023-01-29T14:35:27.046Z,101821.48
2023-01-29T14:38:17.901Z,101825.72
2023-01-29T14:41:17.574Z,101823.73
2023-01-29T14:44:42.789Z,101822.01
2023-01-29T14:47:58.275Z,101817.55
2023-01-29T14:51:12.404Z,101820.41
2023-01-29T14:54:07.399Z,101818.70
2023-01-29T14:57:02.747Z,101823.16
2023-01-29T14:59:59.075Z,101823.39
2023-01-29T15:02:59.867Z,101823.88
2023-01-29T15:05:53.270Z,101824.79
2023-01-29T15:08:48.488Z,101826.79
2023-01-29T15:11:45.542Z,101828.06
2023-01-29T15:14:37.934Z,101826.33
2023-01-29T15:17:34.297Z,101827.98
2023-01-29T15:20:32.737Z,101827.74
2023-01-29T15:23:29.563Z,101827.00
2023-01-29T15:26:26.002Z,101825.55
2023-01-29T15:29:27.213Z,101829.20
2023-01-29T15:32:30.961Z,101834.14
2023-01-29T15:35:31.135Z,101834.73
2023-01-29T15:38:23.141Z,101833.65
2023-01-29T15:41:20.905Z,101837.84
2023-01-29T15:44:18.740Z,101839.34
2023-01-29T15:47:11.199Z,101839.35
2023-01-29T15:50:03.101Z,101841.52
2023-01-29T15:52:55.870Z,101841.24
2023-01-29T15:55:47.569Z,101846.89
2023-01-29T15:58:38.029Z,101847.03
2023-01-29T16:01:31.451Z,101848.55
2023-01-29T16:04:26.939Z,101845.51
2023-01-29T16:07:17.044Z,101843.94
2023-01-29T16:10:09.077Z,101845.84
2023-01-29T16:13:00.094Z,101848.27
2023-01-29T16:15:59.880Z,101851.35
2023-01-29T16:19:00.140Z,101858.46
2023-01-29T16:21:57.211Z,101857.78
2023-01-29T16:24:47.973Z,101858.25
2023-01-29T16:27:38.346Z,101856.79
2023-01-29T16:30:29.894Z,101859.34
2023-01-29T16:33:21.696Z,101860.83
2023-01-29T16:36:18.436Z,101858.12
2023-01-29T16:39:19.891Z,101859.13
2023-01-29T16:42:31.147Z,101861.30
2023-01-29T16:45:31.480Z,101866.21
2023-01-29T16:48:32.191Z,101874.16
2023-01-29T16:51:27.050Z,101878.81
2023-01-29T16:54:19.822Z,101879.73
2023-01-29T16:57:16.672Z,101883.40
2023-01-29T17:00:19.621Z,101888.20
2023-01-29T17:03:13.536Z,101890.16
2023-01-29T17:06:13.017Z,101896.70
2023-01-29T17:09:03.930Z,101896.27
2023-01-29T17:11:57.995Z,101902.46
2023-01-29T17:14:58.286Z,101905.93
2023-01-29T17:17:49.997Z,101908.75
2023-01-29T17:20:40.178Z,101912.44
2023-01-29T17:23:30.814Z,101912.29
2023-01-29T17:26:24.757Z,101915.09
2023-01-29T17:29:20.223Z,101916.33
2023-01-29T17:32:12.434Z,101921.60
2023-01-29T17:35:02.503Z,101922.48
2023-01-29T17:37:53.284Z,101925.73
2023-01-29T17:40:47.698Z,101925.83
2023-01-29T17:43:37.502Z,101930.64
2023-01-29T17:46:28.629Z,101935.23
2023-01-29T17:49:25.139Z,101934.90
2023-01-29T17:52:15.048Z,101935.16
2023-01-29T17:55:05.595Z,101936.70
2023-01-29T17:57:55.842Z,101933.17
2023-01-29T18:00:45.993Z,101932.31
2023-01-29T18:03:36.334Z,101930.30
2023-01-29T18:06:29.754Z,101929.58
2023-01-29T18:09:22.848Z,101931.03
2023-01-29T18:12:14.493Z,101933.69
2023-01-29T18:15:05.064Z,101935.15
2023-01-29T18:17:55.466Z,101936.99
2023-01-29T18:20:45.684Z,101936.45
2023-01-29T18:23:35.940Z,101938.88
2023-01-29T18:26:26.712Z,101938.42
2023-01-29T18:29:16.977Z,101940.80
2023-01-29T18:32:08.426Z,101944.30
2023-01-29T18:34:59.738Z,101941.83
2023-01-29T18:37:50.374Z,101944.69
2023-01-29T18:40:40.584Z,101947.58
2023-01-29T18:43:30.290Z,101946.81
2023-01-29T18:46:20.841Z,101949.02
2023-01-29T18:49:11.674Z,101953.48
2023-01-29T18:52:01.607Z,101960.06
2023-01-29T18:54:52.012Z,101963.54
2023-01-29T18:58:26.096Z,101962.34
2023-01-29T19:00:53.312Z,101959.52
2023-01-29T19:03:44.558Z,101963.55
2023-01-29T19:06:37.201Z,101963.39
2023-01-29T19:09:28.923Z,101959.02
2023-01-29T19:12:19.205Z,101960.73
2023-01-29T19:15:14.382Z,101962.73
2023-01-29T19:18:04.427Z,101961.44
2023-01-29T19:20:55.352Z,101961.27
2023-01-29T19:23:46.170Z,101959.81
2023-01-29T19:26:36.504Z,101962.83
2023-01-29T19:29:28.712Z,101966.71
2023-01-29T19:32:19.220Z,101964.73
2023-01-29T19:35:10.253Z,101968.44
2023-01-29T19:38:00.547Z,101970.21
2023-01-29T19:40:51.380Z,101974.48
2023-01-29T19:43:42.187Z,101970.21
2023-01-29T19:46:32.425Z,101965.70
2023-01-29T19:49:22.655Z,101966.42
2023-01-29T19:52:49.864Z,101968.86
2023-01-29T19:55:40.582Z,101964.92
2023-01-29T19:58:31.036Z,101964.25
2023-01-29T20:01:22.577Z,101966.17
2023-01-29T20:04:12.702Z,101965.80
2023-01-29T20:07:02.456Z,101966.48
2023-01-29T20:09:52.826Z,101969.22
2023-01-29T20:12:43.814Z,101970.44
2023-01-29T20:15:35.835Z,101973.15
2023-01-29T20:18:26.415Z,101981.98
2023-01-29T20:21:18.396Z,101983.00
2023-01-29T20:24:12.865Z,101984.52
2023-01-29T20:27:03.406Z,101985.34
2023-01-29T20:29:53.308Z,101991.99
2023-01-29T20:32:43.551Z,101991.79
2023-01-29T20:35:34.814Z,101993.39
2023-01-29T20:38:26.217Z,101994.40
2023-01-29T20:41:18.667Z,101994.52
2023-01-29T20:44:09.945Z,101996.13
2023-01-29T20:47:02.784Z,101997.73
2023-01-29T20:49:53.306Z,101998.33
2023-01-29T20:52:44.093Z,101998.15
2023-01-29T20:55:34.342Z,102002.95
2023-01-29T20:58:24.537Z,102004.84
2023-01-29T21:01:17.049Z,102005.54
2023-01-29T21:04:07.427Z,102006.70
2023-01-29T21:06:57.538Z,102008.06
2023-01-29T21:09:47.699Z,102009.06
2023-01-29T21:12:38.103Z,102008.86
2023-01-29T21:15:28.078Z,102010.04
2023-01-29T21:18:18.268Z,102009.01
2023-01-29T21:21:09.267Z,102007.06
2023-01-29T21:23:59.585Z,102008.98
2023-01-29T21:26:50.254Z,102008.77
2023-01-29T21:29:40.707Z,102005.86
2023-01-29T21:32:30.773Z,102005.23
2023-01-29T21:35:21.455Z,101999.92
2023-01-29T21:38:11.374Z,101997.02
2023-01-29T21:41:06.707Z,101994.77
2023-01-29T21:43:56.409Z,101997.72
2023-01-29T21:46:47.677Z,102004.38
2023-01-29T21:49:38.413Z,102002.70
2023-01-29T21:52:28.983Z,102002.06
2023-01-29T21:55:19.187Z,102000.60
2023-01-29T21:58:09.515Z,101999.60
2023-01-29T22:01:35.596Z,101999.70
2023-01-29T22:04:11.895Z,101994.36
2023-01-29T22:07:02.284Z,101990.16
2023-01-29T22:09:52.830Z,101985.56
2023-01-29T22:12:44.028Z,101983.89
2023-01-29T22:15:34.727Z,101983.69
2023-01-29T22:18:25.363Z,101982.85
2023-01-29T22:21:16.031Z,101980.92
2023-01-29T22:24:07.678Z,101977.27
2023-01-29T22:26:57.997Z,101975.79
2023-01-29T22:29:47.891Z,101973.81
2023-01-29T22:32:37.683Z,101972.52
2023-01-29T22:35:28.041Z,101972.05
2023-01-29T22:38:18.058Z,101976.38
2023-01-29T22:41:08.164Z,101973.89
2023-01-29T22:43:58.719Z,101972.34
2023-01-29T22:46:49.723Z,101973.00
2023-01-29T22:49:40.325Z,101964.85
2023-01-29T22:52:38.716Z,101963.42
2023-01-29T22:55:28.904Z,101960.75
2023-01-29T22:58:18.824Z,101960.88
2023-01-29T23:01:11.966Z,101963.14
2023-01-29T23:04:02.498Z,101964.55
2023-01-29T23:06:52.306Z,101962.10
2023-01-29T23:09:43.735Z,101962.19
2023-01-29T23:12:34.045Z,101955.90
2023-01-29T23:15:24.210Z,101954.52
2023-01-29T23:18:14.430Z,101955.66
2023-01-29T23:21:05.039Z,101957.31
2023-01-29T23:23:55.674Z,101958.23
2023-01-29T23:27:03.444Z,101957.92
2023-01-29T23:29:53.494Z,101954.09
2023-01-29T23:32:43.783Z,101953.92
2023-01-29T23:35:34.170Z,101950.84
2023-01-29T23:38:24.689Z,101952.14
2023-01-29T23:41:14.799Z,101952.54
2023-01-29T23:44:05.788Z,101950.38
2023-01-29T23:46:56.188Z,101950.45
2023-01-29T23:49:46.311Z,101949.78
2023-01-29T23:52:36.547Z,101948.48
2023-01-29T23:55:26.957Z,101947.42
2023-01-29T23:58:17.174Z,101945.43
